Time;durP1;ratioP1;P1;durP2;ratioP2;P2;SDS_P1;SDS_P2;PMS_P1;PMS_P2;Temp;Humidity;BMP_temperature;BMP_pressure;BME280_temperature;BME280_humidity;BME280_pressure;Samples;Min_cycle;Max_cycle;Signal;HPM_P1;HPM_P2
2023/11/30 00:01:51;;;;;;;;;;;2.70;89.10;;;;;;5048941;28;19925;-64
2023/11/30 00:04:25;;;;;;;;;;;2.70;89.10;;;;;;5049102;28;19971;-65
2023/11/30 00:06:58;;;;;;;;;;;2.70;89.00;;;;;;5033834;28;21282;-63
2023/11/30 00:09:31;;;;;;;;;;;2.70;89.00;;;;;;5052961;28;20349;-64
2023/11/30 00:12:04;;;;;;;;;;;2.70;89.00;;;;;;5031446;28;19950;-64
2023/11/30 00:14:41;;;;;;;;;;;2.70;89.10;;;;;;5053170;28;20311;-64
2023/11/30 00:17:15;;;;;;;;;;;2.70;89.10;;;;;;5052007;28;19933;-63
2023/11/30 00:19:49;;;;;;;;;;;2.70;89.10;;;;;;5053530;28;19928;-64
2023/11/30 00:22:16;;;;;;;;;;;2.70;89.20;;;;;;5053285;28;19928;-63
2023/11/30 00:24:55;;;;;;;;;;;2.70;89.10;;;;;;5042134;28;19929;-63
2023/11/30 00:27:28;;;;;;;;;;;2.70;89.10;;;;;;5051108;28;19929;-65
2023/11/30 00:30:01;;;;;;;;;;;2.70;89.20;;;;;;5033723;28;19933;-64
2023/11/30 00:32:36;;;;;;;;;;;2.70;89.30;;;;;;5051915;28;20353;-64
2023/11/30 00:35:10;;;;;;;;;;;2.60;89.40;;;;;;5048382;28;19978;-63
2023/11/30 00:37:43;;;;;;;;;;;2.60;89.40;;;;;;5033763;28;19998;-64
2023/11/30 00:40:19;;;;;;;;;;;2.60;89.40;;;;;;5051869;28;20019;-64
2023/11/30 00:42:52;;;;;;;;;;;2.70;89.20;;;;;;5029360;28;20020;-64
2023/11/30 00:45:25;;;;;;;;;;;2.70;89.20;;;;;;5043939;28;19932;-63
2023/11/30 00:47:59;;;;;;;;;;;2.70;89.20;;;;;;5052854;28;19929;-64
2023/11/30 00:50:33;;;;;;;;;;;2.70;89.10;;;;;;5048904;28;19924;-64
2023/11/30 00:53:00;;;;;;;;;;;2.70;89.20;;;;;;5033583;28;19968;-64
2023/11/30 00:55:33;;;;;;;;;;;2.70;89.20;;;;;;5033998;28;19925;-64
2023/11/30 00:58:06;;;;;;;;;;;2.70;89.20;;;;;;5048888;28;19925;-64
2023/11/30 01:00:39;;;;;;;;;;;2.70;89.20;;;;;;5050271;28;19929;-64
2023/11/30 01:03:13;;;;;;;;;;;2.70;89.10;;;;;;5050264;28;19929;-64
2023/11/30 01:05:47;;;;;;;;;;;2.70;89.20;;;;;;5047111;28;19933;-63
2023/11/30 01:08:21;;;;;;;;;;;2.70;89.30;;;;;;5050427;28;20425;-64
2023/11/30 01:10:54;;;;;;;;;;;2.80;89.20;;;;;;5039831;28;19932;-72
2023/11/30 01:13:27;;;;;;;;;;;2.70;89.10;;;;;;5048539;28;19935;-71
2023/11/30 01:16:00;;;;;;;;;;;2.70;89.10;;;;;;5049454;28;19953;-72
2023/11/30 01:18:35;;;;;;;;;;;2.80;89.30;;;;;;5051376;28;19925;-71
2023/11/30 01:21:08;;;;;;;;;;;2.80;89.20;;;;;;5050043;28;19925;-72
2023/11/30 01:23:42;;;;;;;;;;;2.80;89.20;;;;;;5025071;28;20327;-71
2023/11/30 01:26:15;;;;;;;;;;;2.80;89.20;;;;;;5050242;28;19968;-70
2023/11/30 01:28:48;;;;;;;;;;;2.80;89.40;;;;;;5043277;28;19970;-71
2023/11/30 01:31:21;;;;;;;;;;;2.80;89.20;;;;;;5048350;28;19933;-72
2023/11/30 01:33:55;;;;;;;;;;;2.80;89.20;;;;;;5047978;28;20299;-73
2023/11/30 01:36:29;;;;;;;;;;;2.80;89.20;;;;;;5044021;28;19975;-71
2023/11/30 01:39:02;;;;;;;;;;;2.80;89.30;;;;;;5049928;28;20344;-72
2023/11/30 01:41:36;;;;;;;;;;;2.80;89.40;;;;;;5024600;28;20393;-71
2023/11/30 01:44:09;;;;;;;;;;;2.80;89.20;;;;;;5047605;28;19936;-71
2023/11/30 01:46:42;;;;;;;;;;;2.80;89.30;;;;;;5047535;28;19929;-72
2023/11/30 01:49:16;;;;;;;;;;;2.80;89.20;;;;;;5051549;28;19925;-71
2023/11/30 01:51:50;;;;;;;;;;;2.90;89.30;;;;;;5027999;28;19934;-71
2023/11/30 01:54:23;;;;;;;;;;;2.80;89.30;;;;;;5040085;28;20071;-71
2023/11/30 01:56:57;;;;;;;;;;;2.80;89.10;;;;;;5032431;28;19935;-70
2023/11/30 01:59:30;;;;;;;;;;;2.80;89.30;;;;;;5033392;28;20423;-71
2023/11/30 02:02:03;;;;;;;;;;;2.80;89.30;;;;;;5019799;28;19925;-71
2023/11/30 02:04:41;;;;;;;;;;;2.80;89.20;;;;;;5031000;28;19935;-71
2023/11/30 02:07:14;;;;;;;;;;;2.80;89.30;;;;;;5050037;28;19935;-71
2023/11/30 02:09:47;;;;;;;;;;;2.80;89.40;;;;;;5042116;28;19936;-72
2023/11/30 02:12:20;;;;;;;;;;;2.80;89.30;;;;;;5031761;28;20014;-72
2023/11/30 02:14:53;;;;;;;;;;;2.80;89.30;;;;;;5047646;28;19929;-71
2023/11/30 02:17:26;;;;;;;;;;;2.70;89.40;;;;;;5025864;28;19929;-71
2023/11/30 02:20:00;;;;;;;;;;;2.80;89.60;;;;;;5036526;28;19935;-60
2023/11/30 02:22:34;;;;;;;;;;;2.80;89.40;;;;;;5031516;28;20015;-59
2023/11/30 02:25:08;;;;;;;;;;;2.80;89.30;;;;;;5024338;28;19928;-59
2023/11/30 02:27:34;;;;;;;;;;;2.70;89.20;;;;;;5049772;28;19988;-60
2023/11/30 02:30:09;;;;;;;;;;;2.80;89.40;;;;;;5041599;28;20387;-60
2023/11/30 02:32:42;;;;;;;;;;;2.80;89.30;;;;;;5024605;28;20418;-58
2023/11/30 02:35:15;;;;;;;;;;;2.70;89.20;;;;;;5044446;28;19932;-57
2023/11/30 02:37:49;;;;;;;;;;;2.80;89.30;;;;;;5050232;28;19936;-60
2023/11/30 02:40:23;;;;;;;;;;;2.80;89.50;;;;;;5045628;28;19933;-59
2023/11/30 02:42:56;;;;;;;;;;;2.80;89.40;;;;;;5026023;28;19935;-59
2023/11/30 02:45:30;;;;;;;;;;;2.80;89.30;;;;;;5048846;28;19924;-61
2023/11/30 02:48:06;;;;;;;;;;;2.80;89.30;;;;;;5032255;28;19925;-59
2023/11/30 02:50:40;;;;;;;;;;;2.70;89.30;;;;;;5050494;28;19924;-60
2023/11/30 02:53:14;;;;;;;;;;;2.70;89.40;;;;;;5050195;28;19932;-60
2023/11/30 02:55:48;;;;;;;;;;;2.80;89.50;;;;;;5048131;28;19955;-60
2023/11/30 02:58:22;;;;;;;;;;;2.70;89.40;;;;;;5031604;28;19968;-60
2023/11/30 03:00:55;;;;;;;;;;;2.70;89.40;;;;;;5027119;28;20371;-61
2023/11/30 03:03:28;;;;;;;;;;;2.70;89.50;;;;;;5047318;28;19928;-60
2023/11/30 03:06:01;;;;;;;;;;;2.70;89.60;;;;;;5049460;28;19967;-59
2023/11/30 03:08:35;;;;;;;;;;;2.70;89.60;;;;;;5047517;28;19925;-60
2023/11/30 03:11:09;;;;;;;;;;;2.80;89.40;;;;;;5038545;28;20385;-60
2023/11/30 03:13:42;;;;;;;;;;;2.70;89.40;;;;;;5041768;28;20823;-60
2023/11/30 03:16:23;;;;;;;;;;;2.70;89.40;;;;;;5042008;28;19976;-60
2023/11/30 03:18:56;;;;;;;;;;;2.70;89.30;;;;;;5047249;28;20727;-59
2023/11/30 03:21:29;;;;;;;;;;;2.80;89.50;;;;;;5048614;28;19928;-60
2023/11/30 03:24:04;;;;;;;;;;;2.80;89.50;;;;;;5023429;28;20039;-59
2023/11/30 03:26:37;;;;;;;;;;;2.80;89.40;;;;;;5046778;28;20468;-59
2023/11/30 03:29:10;;;;;;;;;;;2.60;89.50;;;;;;5027971;28;20359;-59
2023/11/30 03:31:43;;;;;;;;;;;2.60;89.60;;;;;;5047718;28;20406;-63
2023/11/30 03:34:16;;;;;;;;;;;2.70;89.50;;;;;;5046044;28;19924;-61
2023/11/30 03:36:49;;;;;;;;;;;2.60;89.60;;;;;;5047050;28;19933;-63
2023/11/30 03:39:24;;;;;;;;;;;2.60;89.80;;;;;;5049116;28;19929;-63
2023/11/30 03:41:57;;;;;;;;;;;2.60;89.70;;;;;;5049071;28;19936;-61
2023/11/30 03:44:33;;;;;;;;;;;2.60;89.70;;;;;;5051759;28;19925;-62
2023/11/30 03:47:06;;;;;;;;;;;2.70;89.60;;;;;;5050980;28;19928;-63
2023/11/30 03:49:39;;;;;;;;;;;2.70;89.70;;;;;;5045589;28;20379;-62
2023/11/30 03:52:12;;;;;;;;;;;2.70;89.60;;;;;;5050452;28;19963;-61
2023/11/30 03:54:47;;;;;;;;;;;2.70;89.60;;;;;;5027475;28;19937;-60
2023/11/30 03:57:20;;;;;;;;;;;2.70;89.40;;;;;;5049057;28;19925;-62
2023/11/30 03:59:53;;;;;;;;;;;2.70;89.40;;;;;;5043405;28;19936;-60
2023/11/30 04:02:26;;;;;;;;;;;2.60;89.60;;;;;;5037846;28;19974;-62
2023/11/30 04:05:06;;;;;;;;;;;2.70;89.70;;;;;;5030189;28;20310;-62
2023/11/30 04:07:39;;;;;;;;;;;2.70;89.50;;;;;;5030633;28;19929;-62
2023/11/30 04:10:14;;;;;;;;;;;2.70;89.60;;;;;;5053865;28;20409;-62
2023/11/30 04:12:47;;;;;;;;;;;2.70;89.60;;;;;;5055130;28;19947;-63
2023/11/30 04:15:20;;;;;;;;;;;2.70;89.60;;;;;;5052006;28;19925;-62
2023/11/30 04:17:53;;;;;;;;;;;2.70;89.60;;;;;;5053676;28;19928;-62
2023/11/30 04:20:26;;;;;;;;;;;2.80;89.50;;;;;;5051958;28;20348;-63
2023/11/30 04:22:59;;;;;;;;;;;2.80;89.40;;;;;;5034494;28;20005;-62
2023/11/30 04:25:34;;;;;;;;;;;2.70;89.30;;;;;;5046918;28;19931;-63
2023/11/30 04:28:08;;;;;;;;;;;2.80;89.50;;;;;;5052032;28;20380;-63
2023/11/30 04:30:41;;;;;;;;;;;2.80;89.50;;;;;;5034762;28;20328;-60
2023/11/30 04:33:14;;;;;;;;;;;2.80;89.40;;;;;;5042237;28;19982;-63
2023/11/30 04:35:48;;;;;;;;;;;2.80;89.40;;;;;;5049967;28;20291;-62
2023/11/30 04:38:24;;;;;;;;;;;2.80;89.40;;;;;;5051016;28;19960;-62
2023/11/30 04:41:08;;;;;;;;;;;2.80;89.30;;;;;;5025450;28;20016;-60
2023/11/30 04:43:41;;;;;;;;;;;2.80;89.40;;;;;;5025144;28;19924;-61
2023/11/30 04:46:14;;;;;;;;;;;2.80;89.30;;;;;;5026987;28;20379;-58
2023/11/30 04:48:47;;;;;;;;;;;2.90;89.40;;;;;;5042906;28;20019;-61
2023/11/30 04:51:20;;;;;;;;;;;2.80;89.30;;;;;;5047482;28;19979;-60
2023/11/30 04:53:53;;;;;;;;;;;2.80;89.40;;;;;;5025840;28;19929;-62
2023/11/30 04:56:28;;;;;;;;;;;2.90;89.40;;;;;;5025482;28;19947;-61
2023/11/30 04:59:01;;;;;;;;;;;2.80;89.50;;;;;;5049460;28;19960;-59
2023/11/30 05:01:37;;;;;;;;;;;2.70;89.50;;;;;;5051208;28;19925;-62
2023/11/30 05:04:10;;;;;;;;;;;2.70;89.60;;;;;;5051032;28;19925;-60
2023/11/30 05:06:43;;;;;;;;;;;2.80;89.60;;;;;;5050357;28;19929;-60
2023/11/30 05:09:16;;;;;;;;;;;2.80;89.40;;;;;;5051570;28;19924;-62
2023/11/30 05:11:51;;;;;;;;;;;2.80;89.60;;;;;;5050867;28;19925;-61
2023/11/30 05:14:24;;;;;;;;;;;2.80;89.50;;;;;;5050587;28;19936;-61
2023/11/30 05:16:57;;;;;;;;;;;2.80;89.50;;;;;;5050130;28;19928;-60
2023/11/30 05:19:30;;;;;;;;;;;2.80;89.40;;;;;;5050272;28;19979;-63
2023/11/30 05:22:03;;;;;;;;;;;2.80;89.40;;;;;;5050028;28;19939;-63
2023/11/30 05:24:36;;;;;;;;;;;2.80;89.50;;;;;;5050729;28;19929;-63
2023/11/30 05:27:10;;;;;;;;;;;2.70;89.70;;;;;;5050621;28;19928;-60
2023/11/30 05:29:43;;;;;;;;;;;2.70;89.90;;;;;;5051290;28;19975;-59
2023/11/30 05:32:10;;;;;;;;;;;2.70;89.90;;;;;;5044776;28;19936;-60
2023/11/30 05:34:43;;;;;;;;;;;2.70;89.80;;;;;;5050206;28;20375;-59
2023/11/30 05:37:17;;;;;;;;;;;2.70;89.90;;;;;;5050400;28;20003;-60
2023/11/30 05:39:50;;;;;;;;;;;2.60;89.90;;;;;;5050138;28;20018;-60
2023/11/30 05:42:25;;;;;;;;;;;2.70;90.00;;;;;;5048807;28;19929;-60
2023/11/30 05:44:58;;;;;;;;;;;2.70;90.10;;;;;;5051815;28;19964;-59
2023/11/30 05:47:31;;;;;;;;;;;2.70;90.10;;;;;;5029173;28;20306;-59
2023/11/30 05:50:05;;;;;;;;;;;2.70;90.10;;;;;;5049136;28;19928;-78
2023/11/30 05:52:38;;;;;;;;;;;2.70;89.80;;;;;;5050992;28;19952;-80
2023/11/30 05:55:11;;;;;;;;;;;2.80;89.70;;;;;;5050956;28;19955;-79
2023/11/30 05:57:46;;;;;;;;;;;2.80;89.90;;;;;;5049937;28;19959;-77
2023/11/30 06:00:20;;;;;;;;;;;2.90;89.80;;;;;;5049933;28;19924;-80
2023/11/30 06:02:54;;;;;;;;;;;2.90;89.60;;;;;;5050850;28;20322;-75
2023/11/30 06:05:30;;;;;;;;;;;2.80;89.50;;;;;;5046668;28;19928;-75
2023/11/30 06:08:04;;;;;;;;;;;2.80;89.80;;;;;;5050754;28;19929;-74
2023/11/30 06:10:37;;;;;;;;;;;2.70;89.90;;;;;;5048750;28;20011;-80
2023/11/30 06:13:12;;;;;;;;;;;2.70;89.90;;;;;;5024362;28;19925;-77
2023/11/30 06:15:45;;;;;;;;;;;2.70;89.90;;;;;;5048707;28;19929;-79
2023/11/30 06:18:18;;;;;;;;;;;2.80;89.70;;;;;;5049263;28;19975;-78
2023/11/30 06:20:51;;;;;;;;;;;2.80;89.60;;;;;;5032814;28;19928;-78
2023/11/30 06:23:25;;;;;;;;;;;2.80;89.60;;;;;;5049003;28;21039;-79
2023/11/30 06:25:52;;;;;;;;;;;2.80;89.60;;;;;;5048577;28;19936;-77
2023/11/30 06:28:28;;;;;;;;;;;2.80;89.60;;;;;;5049930;28;19982;-77
2023/11/30 06:31:01;;;;;;;;;;;2.90;89.60;;;;;;5048395;28;19968;-78
2023/11/30 06:33:34;;;;;;;;;;;2.80;89.60;;;;;;5047183;28;19932;-77
2023/11/30 06:36:08;;;;;;;;;;;2.70;89.80;;;;;;5049924;28;19958;-78
2023/11/30 06:38:42;;;;;;;;;;;2.70;89.90;;;;;;5049290;28;19933;-78
2023/11/30 06:41:15;;;;;;;;;;;2.80;89.90;;;;;;5049287;28;19932;-76
2023/11/30 06:43:50;;;;;;;;;;;2.80;89.70;;;;;;5049514;28;19964;-80
2023/11/30 06:46:24;;;;;;;;;;;2.80;89.60;;;;;;5047524;28;19951;-76
2023/11/30 06:48:57;;;;;;;;;;;2.80;89.70;;;;;;5032057;28;20434;-77
2023/11/30 06:51:30;;;;;;;;;;;2.80;89.80;;;;;;5049952;28;19924;-78
2023/11/30 06:54:10;;;;;;;;;;;2.90;89.80;;;;;;5050119;28;19924;-78
2023/11/30 06:56:43;;;;;;;;;;;2.90;89.70;;;;;;5046809;28;19987;-76
2023/11/30 06:59:18;;;;;;;;;;;2.80;89.60;;;;;;5047799;28;20295;-76
2023/11/30 07:01:51;;;;;;;;;;;2.80;89.70;;;;;;5046156;28;19932;-60
2023/11/30 07:04:24;;;;;;;;;;;2.80;89.70;;;;;;5048320;28;19967;-61
2023/11/30 07:06:57;;;;;;;;;;;2.80;89.80;;;;;;5048447;28;20000;-60
2023/11/30 07:09:30;;;;;;;;;;;2.80;89.70;;;;;;5049702;28;20347;-60
2023/11/30 07:12:03;;;;;;;;;;;2.90;89.80;;;;;;5046241;28;20008;-60
2023/11/30 07:14:38;;;;;;;;;;;2.90;89.60;;;;;;5043847;28;19960;-60
2023/11/30 07:17:11;;;;;;;;;;;2.90;89.70;;;;;;5044363;28;19964;-60
2023/11/30 07:19:44;;;;;;;;;;;3.00;89.50;;;;;;5049126;28;20303;-60
2023/11/30 07:22:18;;;;;;;;;;;3.00;89.60;;;;;;5048558;28;20371;-60
2023/11/30 07:24:50;;;;;;;;;;;3.00;89.50;;;;;;5048300;28;19929;-59
2023/11/30 07:27:23;;;;;;;;;;;3.00;89.40;;;;;;5047934;28;19939;-60
2023/11/30 07:29:58;;;;;;;;;;;2.90;89.40;;;;;;5048575;28;19931;-60
2023/11/30 07:32:31;;;;;;;;;;;2.90;89.70;;;;;;5044239;28;20008;-60
2023/11/30 07:35:08;;;;;;;;;;;3.00;89.60;;;;;;5047222;28;19940;-61
2023/11/30 07:37:42;;;;;;;;;;;3.10;89.60;;;;;;5031984;28;19951;-59
2023/11/30 07:40:15;;;;;;;;;;;3.00;89.60;;;;;;5049141;28;19967;-61
2023/11/30 07:42:48;;;;;;;;;;;3.00;89.50;;;;;;5047102;28;22991;-61
2023/11/30 07:45:23;;;;;;;;;;;3.00;89.30;;;;;;5048066;28;20668;-60
2023/11/30 07:47:58;;;;;;;;;;;2.90;89.40;;;;;;5047496;28;19928;-60
2023/11/30 07:50:31;;;;;;;;;;;3.00;89.50;;;;;;5047332;28;20012;-59
2023/11/30 07:53:08;;;;;;;;;;;3.00;89.60;;;;;;5047783;28;19933;-62
2023/11/30 07:55:41;;;;;;;;;;;3.10;89.60;;;;;;5049461;28;19999;-60
2023/11/30 07:58:14;;;;;;;;;;;3.10;89.60;;;;;;5046812;28;19939;-60
2023/11/30 08:00:49;;;;;;;;;;;3.10;89.40;;;;;;5043846;28;20295;-59
2023/11/30 08:03:22;;;;;;;;;;;3.10;89.40;;;;;;5045099;28;19929;-60
2023/11/30 08:05:55;;;;;;;;;;;3.10;89.40;;;;;;5048772;28;19935;-60
2023/11/30 08:08:28;;;;;;;;;;;3.10;89.60;;;;;;5049088;28;19928;-60
2023/11/30 08:11:01;;;;;;;;;;;3.20;89.60;;;;;;5047208;28;20375;-59
2023/11/30 08:13:35;;;;;;;;;;;3.20;89.30;;;;;;5046256;28;19964;-60
2023/11/30 08:16:10;;;;;;;;;;;3.10;89.40;;;;;;5044460;28;20340;-61
2023/11/30 08:18:43;;;;;;;;;;;3.10;89.50;;;;;;5047943;28;19936;-60
2023/11/30 08:21:16;;;;;;;;;;;3.10;89.50;;;;;;5050185;28;19928;-61
2023/11/30 08:23:49;;;;;;;;;;;3.20;89.60;;;;;;5048869;28;19935;-60
2023/11/30 08:26:22;;;;;;;;;;;3.20;89.50;;;;;;5050439;28;19936;-60
2023/11/30 08:28:55;;;;;;;;;;;3.20;89.30;;;;;;5048252;28;20484;-60
2023/11/30 08:31:30;;;;;;;;;;;3.20;89.50;;;;;;5043100;28;20528;-59
2023/11/30 08:34:03;;;;;;;;;;;3.20;89.40;;;;;;5051021;28;19933;-60
2023/11/30 08:36:36;;;;;;;;;;;3.20;89.50;;;;;;5049009;28;20448;-59
2023/11/30 08:39:10;;;;;;;;;;;3.30;89.50;;;;;;5042529;28;19924;-60
2023/11/30 08:41:44;;;;;;;;;;;3.30;89.40;;;;;;5052105;28;19929;-60
2023/11/30 08:44:16;;;;;;;;;;;3.40;89.30;;;;;;5052246;28;19948;-60
2023/11/30 08:46:51;;;;;;;;;;;3.40;89.30;;;;;;5046453;28;20014;-59
2023/11/30 08:49:25;;;;;;;;;;;3.40;89.30;;;;;;5048648;28;19933;-59
2023/11/30 08:51:58;;;;;;;;;;;3.40;89.30;;;;;;5049781;28;20273;-60
2023/11/30 08:54:31;;;;;;;;;;;3.40;89.30;;;;;;5051933;28;19983;-61
2023/11/30 08:56:59;;;;;;;;;;;3.40;89.20;;;;;;5047069;28;19928;-59
2023/11/30 08:59:34;;;;;;;;;;;3.40;89.30;;;;;;5053346;28;19932;-61
2023/11/30 09:02:09;;;;;;;;;;;3.40;89.30;;;;;;5051317;28;20319;-60
2023/11/30 09:04:42;;;;;;;;;;;3.50;89.10;;;;;;5052027;28;19932;-60
2023/11/30 09:07:15;;;;;;;;;;;3.50;89.30;;;;;;5051878;28;19925;-60
2023/11/30 09:09:48;;;;;;;;;;;3.60;89.20;;;;;;5051583;28;19925;-61
2023/11/30 09:12:21;;;;;;;;;;;3.40;88.90;;;;;;5051538;28;19932;-59
2023/11/30 09:14:54;;;;;;;;;;;3.50;89.30;;;;;;5053495;28;19925;-60
2023/11/30 09:17:29;;;;;;;;;;;3.50;89.30;;;;;;5052546;28;19935;-60
2023/11/30 09:20:08;;;;;;;;;;;3.70;89.20;;;;;;5052128;28;19925;-72
2023/11/30 09:22:43;;;;;;;;;;;3.70;89.10;;;;;;5051667;28;19986;-71
2023/11/30 09:25:17;;;;;;;;;;;3.70;89.00;;;;;;5053883;28;19951;-71
2023/11/30 09:27:50;;;;;;;;;;;3.70;89.00;;;;;;5051999;28;19924;-71
2023/11/30 09:30:17;;;;;;;;;;;3.80;88.90;;;;;;5035868;28;19941;-72
2023/11/30 09:32:53;;;;;;;;;;;3.80;88.70;;;;;;5026076;28;20276;-70
2023/11/30 09:35:26;;;;;;;;;;;3.80;88.70;;;;;;5050028;28;19958;-70
2023/11/30 09:37:59;;;;;;;;;;;3.80;88.70;;;;;;5051485;28;19956;-72
2023/11/30 09:40:34;;;;;;;;;;;3.80;88.70;;;;;;5051204;28;19925;-70
2023/11/30 09:43:08;;;;;;;;;;;3.80;88.70;;;;;;5051231;28;19929;-71
2023/11/30 09:45:42;;;;;;;;;;;3.80;88.60;;;;;;5052082;28;19925;-71
2023/11/30 09:48:17;;;;;;;;;;;3.80;88.50;;;;;;5050540;28;20379;-71
2023/11/30 09:50:53;;;;;;;;;;;3.70;88.50;;;;;;5050452;28;19925;-71
2023/11/30 09:53:33;;;;;;;;;;;3.70;88.60;;;;;;5050529;28;20015;-73
2023/11/30 09:56:07;;;;;;;;;;;3.70;88.60;;;;;;5050950;28;20334;-72
2023/11/30 09:58:42;;;;;;;;;;;3.70;88.50;;;;;;5046299;28;19972;-72
2023/11/30 10:01:16;;;;;;;;;;;3.80;88.50;;;;;;5047399;28;19929;-70
2023/11/30 10:03:51;;;;;;;;;;;3.80;88.30;;;;;;5051158;28;19975;-71
2023/11/30 10:06:24;;;;;;;;;;;3.80;88.40;;;;;;5050100;28;19970;-71
2023/11/30 10:09:01;;;;;;;;;;;3.80;88.40;;;;;;5050422;28;19928;-72
2023/11/30 10:11:35;;;;;;;;;;;3.80;88.50;;;;;;5051286;28;19932;-71
2023/11/30 10:14:08;;;;;;;;;;;3.80;88.40;;;;;;5045216;28;19924;-72
2023/11/30 10:16:41;;;;;;;;;;;3.90;88.40;;;;;;5050986;28;19925;-72
2023/11/30 10:19:16;;;;;;;;;;;3.90;88.30;;;;;;5050765;28;20372;-72
2023/11/30 10:21:50;;;;;;;;;;;3.90;88.10;;;;;;5049775;28;20050;-70
2023/11/30 10:24:24;;;;;;;;;;;4.00;88.10;;;;;;5046040;28;19932;-73
2023/11/30 10:27:06;;;;;;;;;;;4.00;88.10;;;;;;5049792;28;19928;-73
2023/11/30 10:29:42;;;;;;;;;;;4.00;88.00;;;;;;5051115;28;20356;-72
2023/11/30 10:32:15;;;;;;;;;;;4.00;88.00;;;;;;5050227;28;19933;-60
2023/11/30 10:34:50;;;;;;;;;;;4.10;88.00;;;;;;5050081;28;19933;-60
2023/11/30 10:37:26;;;;;;;;;;;4.10;87.80;;;;;;5050750;28;19931;-60
2023/11/30 10:40:00;;;;;;;;;;;4.00;87.80;;;;;;5050358;28;20302;-59
2023/11/30 10:42:34;;;;;;;;;;;4.00;87.80;;;;;;5049840;28;19928;-60
2023/11/30 10:45:08;;;;;;;;;;;4.10;88.00;;;;;;5049481;28;19939;-60
2023/11/30 10:47:42;;;;;;;;;;;4.20;87.80;;;;;;5051699;28;19928;-60
2023/11/30 10:50:17;;;;;;;;;;;4.20;87.70;;;;;;5043296;28;19936;-60
2023/11/30 10:52:52;;;;;;;;;;;4.20;87.70;;;;;;5048351;28;19945;-60
2023/11/30 10:55:25;;;;;;;;;;;4.20;87.70;;;;;;5042257;28;20005;-59
2023/11/30 10:57:58;;;;;;;;;;;4.20;87.70;;;;;;5047991;28;20042;-59
2023/11/30 11:00:34;;;;;;;;;;;4.10;87.70;;;;;;5046035;28;20504;-59
2023/11/30 11:03:10;;;;;;;;;;;4.20;87.60;;;;;;5049173;28;19931;-60
2023/11/30 11:05:45;;;;;;;;;;;4.30;87.30;;;;;;5050314;28;19925;-61
2023/11/30 11:08:22;;;;;;;;;;;4.30;87.30;;;;;;5030397;28;19925;-59
2023/11/30 11:11:05;;;;;;;;;;;4.20;87.10;;;;;;5048995;28;20015;-60
2023/11/30 11:13:45;;;;;;;;;;;4.30;87.20;;;;;;5049539;28;19929;-60
2023/11/30 11:16:18;;;;;;;;;;;4.30;87.20;;;;;;5048287;28;19925;-60
2023/11/30 11:18:45;;;;;;;;;;;4.40;87.00;;;;;;5047918;28;19936;-60
2023/11/30 11:21:28;;;;;;;;;;;4.50;87.00;;;;;;5046718;28;19925;-61
2023/11/30 11:24:01;;;;;;;;;;;4.60;86.80;;;;;;5031342;28;19924;-60
2023/11/30 11:26:41;;;;;;;;;;;4.60;86.70;;;;;;5048025;28;19956;-61
2023/11/30 11:29:15;;;;;;;;;;;4.60;86.70;;;;;;5047907;28;20509;-60
2023/11/30 11:31:49;;;;;;;;;;;4.50;86.60;;;;;;5050090;28;19932;-60
2023/11/30 11:34:21;;;;;;;;;;;4.50;86.80;;;;;;5047863;28;20394;-60
2023/11/30 11:36:59;;;;;;;;;;;4.60;86.80;;;;;;5050484;28;19929;-60
2023/11/30 11:39:32;;;;;;;;;;;4.60;86.70;;;;;;5049917;28;19956;-60
2023/11/30 11:42:06;;;;;;;;;;;4.50;86.70;;;;;;5049871;28;19929;-74
2023/11/30 11:44:38;;;;;;;;;;;4.50;86.60;;;;;;5049318;28;19964;-74
2023/11/30 11:47:11;;;;;;;;;;;4.50;86.70;;;;;;5048842;28;19933;-74
2023/11/30 11:49:45;;;;;;;;;;;4.50;86.60;;;;;;5050006;28;19928;-75
2023/11/30 11:52:20;;;;;;;;;;;4.40;86.90;;;;;;5049805;28;19972;-73
2023/11/30 11:55:00;;;;;;;;;;;4.50;86.50;;;;;;5049227;28;19929;-73
2023/11/30 11:57:34;;;;;;;;;;;4.30;86.40;;;;;;5048901;28;19925;-74
2023/11/30 12:00:10;;;;;;;;;;;4.40;86.90;;;;;;5044984;28;19971;-74
2023/11/30 12:02:43;;;;;;;;;;;4.50;86.80;;;;;;5052536;28;20386;-75
2023/11/30 12:05:16;;;;;;;;;;;4.40;86.40;;;;;;5052906;28;19987;-73
2023/11/30 12:07:51;;;;;;;;;;;4.40;86.70;;;;;;5053984;28;19936;-74
2023/11/30 12:10:28;;;;;;;;;;;4.50;86.60;;;;;;5052490;28;19925;-75
2023/11/30 12:13:02;;;;;;;;;;;4.60;86.20;;;;;;5027472;28;19929;-73
2023/11/30 12:15:36;;;;;;;;;;;4.70;86.00;;;;;;5052962;28;20004;-74
2023/11/30 12:18:10;;;;;;;;;;;4.80;85.70;;;;;;5052083;28;19940;-73
2023/11/30 12:20:45;;;;;;;;;;;4.70;85.60;;;;;;5052562;28;19924;-75
2023/11/30 12:23:22;;;;;;;;;;;4.80;85.80;;;;;;5043508;28;19975;-72
2023/11/30 12:25:56;;;;;;;;;;;4.80;85.50;;;;;;5045805;28;19925;-59
2023/11/30 12:28:29;;;;;;;;;;;4.70;85.70;;;;;;5042505;28;20388;-60
2023/11/30 12:31:02;;;;;;;;;;;4.70;85.80;;;;;;5051829;28;20417;-62
2023/11/30 12:33:35;;;;;;;;;;;4.80;85.80;;;;;;5053082;28;19936;-60
2023/11/30 12:36:09;;;;;;;;;;;4.80;85.70;;;;;;5052102;28;19939;-61
2023/11/30 12:38:44;;;;;;;;;;;4.90;85.50;;;;;;5051380;28;19925;-61
2023/11/30 12:41:17;;;;;;;;;;;4.90;85.40;;;;;;5051767;28;19936;-60
2023/11/30 12:43:51;;;;;;;;;;;4.90;85.10;;;;;;5052952;28;19936;-59
2023/11/30 12:46:24;;;;;;;;;;;4.90;85.00;;;;;;5052153;28;19925;-60
2023/11/30 12:48:57;;;;;;;;;;;4.90;84.90;;;;;;5050078;28;20295;-60
2023/11/30 12:51:30;;;;;;;;;;;4.90;84.80;;;;;;5052947;28;20371;-62
2023/11/30 12:54:05;;;;;;;;;;;4.90;85.30;;;;;;5051884;28;19979;-61
2023/11/30 12:56:38;;;;;;;;;;;4.80;85.20;;;;;;5051696;28;20399;-61
2023/11/30 12:59:12;;;;;;;;;;;4.90;85.20;;;;;;5052129;28;19940;-61
2023/11/30 13:01:47;;;;;;;;;;;5.00;85.20;;;;;;5053394;28;19944;-62
2023/11/30 13:04:22;;;;;;;;;;;5.00;85.20;;;;;;5052770;28;19971;-61
2023/11/30 13:06:57;;;;;;;;;;;5.00;84.80;;;;;;5051847;28;20007;-61
2023/11/30 13:09:35;;;;;;;;;;;4.90;85.40;;;;;;5052550;28;20322;-62
2023/11/30 13:12:09;;;;;;;;;;;5.00;85.10;;;;;;5051972;28;19968;-62
2023/11/30 13:14:41;;;;;;;;;;;5.00;85.10;;;;;;5052958;28;19929;-63
2023/11/30 13:17:16;;;;;;;;;;;5.00;85.30;;;;;;5051643;28;19929;-62
2023/11/30 13:19:50;;;;;;;;;;;5.00;85.20;;;;;;5051731;28;19933;-63
2023/11/30 13:22:23;;;;;;;;;;;4.90;85.30;;;;;;5050800;28;19932;-62
2023/11/30 13:24:59;;;;;;;;;;;4.90;85.70;;;;;;5051504;28;19925;-62
2023/11/30 13:27:32;;;;;;;;;;;4.90;85.50;;;;;;5052904;28;19929;-62
2023/11/30 13:30:06;;;;;;;;;;;4.90;85.30;;;;;;5051548;28;19938;-63
2023/11/30 13:32:39;;;;;;;;;;;4.70;85.40;;;;;;5050980;28;20010;-61
2023/11/30 13:35:13;;;;;;;;;;;4.70;85.30;;;;;;5050287;28;19929;-62
2023/11/30 13:37:48;;;;;;;;;;;4.60;85.00;;;;;;5051918;28;19935;-61
2023/11/30 13:40:22;;;;;;;;;;;4.60;85.50;;;;;;5049668;28;19929;-62
2023/11/30 13:42:57;;;;;;;;;;;4.60;85.40;;;;;;5050558;28;20276;-63
2023/11/30 13:45:30;;;;;;;;;;;4.60;85.40;;;;;;5051221;28;19925;-62
2023/11/30 13:48:03;;;;;;;;;;;4.70;85.40;;;;;;5051352;28;20003;-63
2023/11/30 13:50:35;;;;;;;;;;;4.60;85.20;;;;;;5050834;28;20360;-62
2023/11/30 13:53:10;;;;;;;;;;;4.60;85.30;;;;;;5045091;28;20039;-61
2023/11/30 13:55:45;;;;;;;;;;;4.60;85.50;;;;;;5050868;28;19994;-62
2023/11/30 13:58:18;;;;;;;;;;;4.60;85.30;;;;;;5048186;28;19929;-61
2023/11/30 14:00:52;;;;;;;;;;;4.60;85.40;;;;;;5047217;28;19936;-73
2023/11/30 14:03:25;;;;;;;;;;;4.60;85.20;;;;;;5045298;28;19943;-76
2023/11/30 14:05:57;;;;;;;;;;;4.60;85.20;;;;;;5047229;28;19935;-77
2023/11/30 14:08:30;;;;;;;;;;;4.60;85.30;;;;;;5052327;28;19928;-76
2023/11/30 14:11:08;;;;;;;;;;;4.60;85.40;;;;;;5050273;28;19951;-74
2023/11/30 14:13:51;;;;;;;;;;;4.50;85.20;;;;;;5052256;28;19925;-76
2023/11/30 14:16:24;;;;;;;;;;;4.50;85.20;;;;;;5050930;28;20043;-73
2023/11/30 14:18:56;;;;;;;;;;;4.50;85.50;;;;;;5050771;28;19943;-74
2023/11/30 14:21:30;;;;;;;;;;;4.50;85.50;;;;;;5052076;28;19939;-73
2023/11/30 14:24:04;;;;;;;;;;;4.40;85.60;;;;;;5048327;28;19928;-72
2023/11/30 14:26:39;;;;;;;;;;;4.50;85.60;;;;;;5050450;28;19925;-73
2023/11/30 14:29:12;;;;;;;;;;;4.40;85.50;;;;;;5050089;28;19929;-77
2023/11/30 14:31:47;;;;;;;;;;;4.40;85.60;;;;;;5047825;28;19929;-77
2023/11/30 14:34:21;;;;;;;;;;;4.50;85.70;;;;;;5049306;28;19925;-75
2023/11/30 14:37:01;;;;;;;;;;;4.50;85.70;;;;;;5048853;28;20383;-74
2023/11/30 14:39:34;;;;;;;;;;;4.50;85.60;;;;;;5045092;28;19933;-73
2023/11/30 14:42:09;;;;;;;;;;;4.50;85.60;;;;;;5049199;28;19924;-77
2023/11/30 14:44:43;;;;;;;;;;;4.50;85.60;;;;;;5050292;28;19951;-74
2023/11/30 14:47:15;;;;;;;;;;;4.40;85.60;;;;;;5047053;28;20011;-74
2023/11/30 14:49:49;;;;;;;;;;;4.40;85.70;;;;;;5049734;28;20032;-75
2023/11/30 14:52:22;;;;;;;;;;;4.40;85.50;;;;;;5050328;28;19935;-74
2023/11/30 14:54:54;;;;;;;;;;;4.40;85.70;;;;;;5050189;28;19929;-72
2023/11/30 14:57:29;;;;;;;;;;;4.40;85.40;;;;;;5039813;28;19929;-75
2023/11/30 15:00:05;;;;;;;;;;;4.40;85.60;;;;;;5042104;28;19964;-74
2023/11/30 15:02:37;;;;;;;;;;;4.30;85.20;;;;;;5048323;28;20397;-74
2023/11/30 15:05:13;;;;;;;;;;;4.30;85.30;;;;;;5048401;28;19925;-76
2023/11/30 15:07:46;;;;;;;;;;;4.30;85.40;;;;;;5045501;28;19932;-74
2023/11/30 15:10:20;;;;;;;;;;;4.30;85.50;;;;;;5044893;28;19932;-75